Time;durP1;ratioP1;P1;durP2;ratioP2;P2;SDS_P1;SDS_P2;PMS_P1;PMS_P2;Temp;Humidity;BMP_temperature;BMP_pressure;BME280_temperature;BME280_humidity;BME280_pressure;Samples;Min_cycle;Max_cycle;Signal;HPM_P1;HPM_P2
2022/11/25 00:00:48;;;;;;;7.03;2.83;;;;;;;17.95;48.80;100918.69;5023454;28;20123;-59
2022/11/25 00:03:14;;;;;;;5.13;2.67;;;;;;;17.95;48.59;100921.38;5023294;28;20045;-60
2022/11/25 00:05:39;;;;;;;4.05;2.38;;;;;;;17.95;48.80;100917.84;5023682;28;20058;-60
2022/11/25 00:08:04;;;;;;;4.80;2.65;;;;;;;17.94;48.53;100918.84;5023448;28;20056;-60
2022/11/25 00:10:30;;;;;;;5.00;2.53;;;;;;;17.93;48.68;100920.72;5023810;28;20593;-59
2022/11/25 00:12:55;;;;;;;4.45;2.55;;;;;;;17.69;48.78;100874.84;5005868;28;20036;-59
2022/11/25 00:15:20;;;;;;;5.90;2.88;;;;;;;17.93;48.73;100914.47;5023598;28;20445;-59
2022/11/25 00:17:45;;;;;;;4.82;2.60;;;;;;;17.93;49.01;100914.47;5022145;28;20045;-59
2022/11/25 00:20:11;;;;;;;3.38;2.20;;;;;;;17.85;48.54;100901.00;5023158;28;20040;-59
2022/11/25 00:22:36;;;;;;;5.63;2.30;;;;;;;17.91;48.64;100909.25;5022748;28;20034;-60
2022/11/25 00:25:01;;;;;;;6.25;2.67;;;;;;;17.91;48.62;100903.88;5023245;28;20110;-60
2022/11/25 00:27:27;;;;;;;4.07;2.47;;;;;;;17.91;48.42;100903.88;5023151;28;20022;-60
2022/11/25 00:29:52;;;;;;;3.58;2.28;;;;;;;17.90;48.66;100899.50;5023409;28;20061;-60
2022/11/25 00:32:17;;;;;;;4.05;2.30;;;;;;;17.90;48.44;100901.34;5022829;28;20026;-59
2022/11/25 00:34:43;;;;;;;5.18;2.45;;;;;;;17.88;48.65;100896.16;5023549;28;20033;-60
2022/11/25 00:37:08;;;;;;;5.30;2.63;;;;;;;17.87;48.46;100898.97;5022860;28;20586;-60
2022/11/25 00:39:33;;;;;;;5.28;2.58;;;;;;;17.89;48.60;100886.22;5023282;28;20026;-60
2022/11/25 00:44:42;;;;;;;5.45;2.40;;;;;;;17.89;48.57;100888.91;5023523;28;20028;-59
2022/11/25 00:47:10;;;;;;;4.45;2.28;;;;;;;17.88;48.48;100882.69;5024536;28;20034;-59
2022/11/25 00:49:37;;;;;;;4.22;2.75;;;;;;;17.87;48.50;100888.22;5026920;28;20026;-59
2022/11/25 00:52:03;;;;;;;5.13;2.35;;;;;;;17.86;48.52;100883.84;5026283;28;20499;-58
2022/11/25 00:54:28;;;;;;;5.72;2.33;;;;;;;17.86;48.66;100890.06;5009281;28;20045;-59
2022/11/25 00:56:54;;;;;;;4.43;2.60;;;;;;;17.85;48.46;100896.47;5026447;28;20094;-58
2022/11/25 00:59:19;;;;;;;3.28;2.20;;;;;;;17.86;48.45;100895.44;5026866;28;20022;-59
2022/11/25 01:01:44;;;;;;;4.88;2.50;;;;;;;17.86;48.32;100894.59;5026210;28;20466;-58
2022/11/25 01:04:10;;;;;;;3.92;2.33;;;;;;;17.83;48.41;100892.22;5026347;28;20081;-59
2022/11/25 01:06:36;;;;;;;4.20;2.22;;;;;;;17.85;48.40;100890.25;5026149;28;20034;-58
2022/11/25 01:09:05;;;;;;;3.35;2.00;;;;;;;17.84;48.52;100900.16;5026296;28;20053;-59
2022/11/25 01:11:30;;;;;;;4.03;1.90;;;;;;;17.84;48.60;100896.59;5026151;28;20033;-59
2022/11/25 01:13:57;;;;;;;5.32;2.47;;;;;;;17.84;48.41;100896.59;5026252;28;20057;-59
2022/11/25 01:16:23;;;;;;;3.42;2.00;;;;;;;17.76;48.60;100877.78;5025568;28;20018;-59
2022/11/25 01:18:49;;;;;;;3.85;2.20;;;;;;;17.83;48.56;100890.38;5025613;28;20081;-59
2022/11/25 01:21:20;;;;;;;3.38;2.20;;;;;;;17.83;48.54;100885.00;5026063;28;20037;-59
2022/11/25 01:23:45;;;;;;;3.72;2.65;;;;;;;17.82;48.61;100894.09;5025622;28;20042;-59
2022/11/25 01:26:13;;;;;;;5.13;2.42;;;;;;;17.82;48.47;100891.41;5008549;28;20731;-59
2022/11/25 01:28:39;;;;;;;4.15;2.00;;;;;;;17.69;48.57;100870.31;5008569;28;20032;-59
2022/11/25 01:31:10;;;;;;;5.60;2.85;;;;;;;17.81;48.54;100889.72;5025404;28;20386;-59
2022/11/25 01:33:35;;;;;;;4.32;2.50;;;;;;;17.80;48.41;100882.66;5025858;28;20022;-59
2022/11/25 01:36:02;;;;;;;4.18;2.00;;;;;;;17.76;48.57;100880.47;5025780;28;20061;-58
2022/11/25 01:38:28;;;;;;;4.13;2.00;;;;;;;17.80;48.55;100885.34;5025425;28;20034;-59
2022/11/25 01:40:54;;;;;;;5.43;2.40;;;;;;;17.80;48.61;100888.03;5025840;28;20085;-59
2022/11/25 01:43:19;;;;;;;5.80;2.65;;;;;;;17.77;48.33;100879.44;5025606;28;20029;-59
2022/11/25 01:45:44;;;;;;;3.95;2.42;;;;;;;17.79;48.27;100883.66;5025356;28;20030;-59
2022/11/25 01:48:21;;;;;;;5.65;2.30;;;;;;;17.79;48.39;100882.81;5024888;28;20057;-59
2022/11/25 01:50:47;;;;;;;4.13;2.55;;;;;;;17.78;48.54;100876.59;5025714;28;20586;-60
2022/11/25 01:53:13;;;;;;;4.15;1.90;;;;;;;17.78;48.70;100873.91;5025190;28;20042;-58
2022/11/25 01:55:43;;;;;;;3.20;1.83;;;;;;;17.69;48.36;100853.34;5025540;28;20080;-59
2022/11/25 01:58:21;;;;;;;3.05;1.70;;;;;;;17.76;48.61;100870.53;5024514;28;20032;-59
2022/11/25 02:00:50;;;;;;;3.72;2.03;;;;;;;17.77;48.53;100874.06;5025485;28;20044;-58
2022/11/25 02:03:19;;;;;;;2.53;1.67;;;;;;;17.76;48.46;100867.84;5024773;28;20041;-59
2022/11/25 02:06:03;;;;;;;4.80;2.10;;;;;;;17.74;48.46;100873.38;5007904;28;20040;-58
2022/11/25 02:08:28;;;;;;;2.97;1.75;;;;;;;17.63;48.54;100854.00;5005487;28;20097;-59
2022/11/25 02:10:54;;;;;;;2.88;1.80;;;;;;;17.74;48.23;100872.53;4988258;28;20432;-60
2022/11/25 02:13:20;;;;;;;4.18;2.10;;;;;;;17.71;48.43;100868.31;4990553;28;20046;-60
2022/11/25 02:15:46;;;;;;;3.63;2.15;;;;;;;17.73;48.52;100871.66;5008258;28;20041;-59
2022/11/25 02:18:11;;;;;;;2.95;2.00;;;;;;;17.72;48.56;100871.84;5024464;28;20458;-60
2022/11/25 02:20:37;;;;;;;4.95;2.50;;;;;;;17.72;48.34;100877.22;5007538;28;20026;-59
2022/11/25 02:23:17;;;;;;;3.00;1.73;;;;;;;17.70;48.43;100871.97;5024393;28;20022;-60
2022/11/25 02:25:42;;;;;;;2.88;1.58;;;;;;;17.69;48.69;100874.84;5024980;28;20038;-60
2022/11/25 02:28:21;;;;;;;3.58;2.28;;;;;;;17.61;48.56;100864.88;5007128;28;20089;-60
2022/11/25 02:30:46;;;;;;;3.47;2.00;;;;;;;17.71;48.33;100876.38;5024889;28;20025;-59
2022/11/25 02:33:13;;;;;;;3.20;1.92;;;;;;;17.69;48.63;100875.69;5024075;28;20037;-60
2022/11/25 02:35:58;;;;;;;4.10;1.98;;;;;;;17.69;48.42;100881.06;5024784;28;20025;-61
2022/11/25 02:38:36;;;;;;;4.22;2.08;;;;;;;17.45;48.66;100835.22;5024518;28;20495;-60
2022/11/25 02:41:12;;;;;;;4.60;1.70;;;;;;;17.67;48.60;100888.47;5007242;28;20530;-60
2022/11/25 02:43:38;;;;;;;3.63;1.80;;;;;;;17.68;48.54;100883.91;5007135;28;20022;-61
2022/11/25 02:46:06;;;;;;;1.92;1.75;;;;;;;17.68;48.50;100883.91;5023892;28;20025;-59
2022/11/25 02:48:33;;;;;;;5.82;2.35;;;;;;;17.67;48.37;100874.13;5024155;28;20027;-60
2022/11/25 02:50:59;;;;;;;3.85;1.83;;;;;;;17.59;48.42;100861.53;5024555;28;20025;-61
2022/11/25 02:53:24;;;;;;;3.78;2.28;;;;;;;17.67;48.66;100876.84;5024149;28;20050;-60
2022/11/25 02:55:49;;;;;;;3.75;1.67;;;;;;;17.65;48.41;100874.31;5024290;28;20029;-60
2022/11/25 02:58:15;;;;;;;5.97;1.80;;;;;;;17.67;48.34;100884.91;5024318;28;20091;-60
2022/11/25 03:00:41;;;;;;;2.90;1.70;;;;;;;17.62;48.37;100882.69;5024456;28;20026;-60
2022/11/25 03:03:06;;;;;;;4.22;1.80;;;;;;;17.66;48.51;100888.59;5023450;28;20022;-60
2022/11/25 03:05:31;;;;;;;2.67;1.85;;;;;;;17.64;48.58;100896.84;5024411;28;20101;-59
2022/11/25 03:07:57;;;;;;;3.35;2.03;;;;;;;17.64;48.46;100894.16;5023791;28;20030;-60
2022/11/25 03:10:22;;;;;;;2.70;1.85;;;;;;;17.65;48.31;100898.50;5024220;28;20041;-60
2022/11/25 03:12:47;;;;;;;3.72;1.90;;;;;;;17.64;48.39;100902.22;5023884;28;20018;-59
2022/11/25 03:15:13;;;;;;;4.57;2.83;;;;;;;17.64;48.66;100904.91;5024141;28;20029;-60
2022/11/25 03:17:38;;;;;;;4.10;1.75;;;;;;;17.66;48.58;100910.09;5023127;28;20072;-59
2022/11/25 03:20:05;;;;;;;4.93;2.55;;;;;;;17.64;48.41;100899.53;5024234;28;20033;-59
2022/11/25 03:22:31;;;;;;;3.88;1.98;;;;;;;17.64;48.60;100885.25;5023600;28;20022;-59
2022/11/25 03:24:56;;;;;;;3.22;1.77;;;;;;;17.64;48.38;100887.94;5024000;28;20061;-59
2022/11/25 03:27:21;;;;;;;4.57;1.80;;;;;;;17.64;48.43;100885.25;5023597;28;20055;-59
2022/11/25 03:29:46;;;;;;;3.60;1.83;;;;;;;17.64;48.42;100887.94;5023816;28;20073;-59
2022/11/25 03:32:12;;;;;;;5.60;2.03;;;;;;;17.63;48.35;100892.47;5023127;28;20030;-59
2022/11/25 03:34:37;;;;;;;3.45;1.80;;;;;;;17.63;48.48;100888.94;5023885;28;20046;-59
2022/11/25 03:37:02;;;;;;;3.60;1.80;;;;;;;17.63;48.54;100899.69;5023242;28;20061;-59
2022/11/25 03:39:28;;;;;;;3.03;1.67;;;;;;;17.63;48.57;100900.53;5023859;28;20018;-59
2022/11/25 03:41:53;;;;;;;4.22;1.70;;;;;;;17.64;48.26;100904.06;5023434;28;20439;-60
2022/11/25 03:44:18;;;;;;;3.30;1.85;;;;;;;17.63;48.79;100900.53;5023899;28;20108;-59
2022/11/25 03:46:43;;;;;;;3.58;2.20;;;;;;;17.61;48.24;100891.78;5022878;28;20038;-60
2022/11/25 03:49:08;;;;;;;3.40;1.80;;;;;;;17.62;48.52;100890.75;5023713;28;20109;-60
2022/11/25 03:51:34;;;;;;;4.30;1.73;;;;;;;17.63;48.32;100894.31;5023748;28;20033;-59
2022/11/25 03:53:59;;;;;;;4.75;2.17;;;;;;;17.37;48.56;100859.38;5023467;28;20030;-59
2022/11/25 03:56:24;;;;;;;4.65;2.00;;;;;;;17.60;48.35;100894.63;5023531;28;20034;-60
2022/11/25 03:58:49;;;;;;;4.18;2.05;;;;;;;17.55;48.64;100895.13;5023808;28;20060;-59
2022/11/25 04:01:15;;;;;;;3.40;1.90;;;;;;;17.51;48.80;100882.16;5023402;28;20036;-59
2022/11/25 04:03:40;;;;;;;4.05;1.83;;;;;;;17.63;48.70;100905.06;5023207;28;20037;-59
2022/11/25 04:06:05;;;;;;;3.90;1.80;;;;;;;17.42;48.43;100859.78;5023420;28;20033;-59
2022/11/25 04:08:31;;;;;;;2.40;1.58;;;;;;;17.56;48.53;100872.59;5023293;28;20057;-59
2022/11/25 04:10:56;;;;;;;2.72;1.60;;;;;;;17.63;48.33;100886.25;5023760;28;20036;-59
2022/11/25 04:13:21;;;;;;;3.10;1.60;;;;;;;17.61;48.51;100874.81;5023349;28;20081;-60
2022/11/25 04:15:48;;;;;;;3.42;1.67;;;;;;;17.63;48.43;100878.19;5023133;28;20038;-60
2022/11/25 04:18:14;;;;;;;4.10;2.00;;;;;;;17.62;48.56;100887.22;5022928;28;20094;-59
2022/11/25 04:20:39;;;;;;;3.45;2.13;;;;;;;17.62;48.30;100882.69;5024018;28;20048;-60
2022/11/25 04:23:05;;;;;;;2.78;1.60;;;;;;;17.63;48.54;100883.56;5026569;28;20493;-59
2022/11/25 04:25:30;;;;;;;3.22;2.03;;;;;;;17.61;48.56;100902.53;5027504;28;20038;-59
2022/11/25 04:27:56;;;;;;;2.67;1.52;;;;;;;17.61;48.44;100913.28;5026974;28;20030;-59
2022/11/25 04:30:21;;;;;;;2.50;2.08;;;;;;;17.37;48.58;100873.66;5027247;28;20029;-59
2022/11/25 04:32:46;;;;;;;3.28;1.75;;;;;;;17.61;48.37;100912.44;5026237;28;20030;-59
2022/11/25 04:35:12;;;;;;;4.18;1.70;;;;;;;17.56;48.41;100904.03;5027146;28;20076;-59
2022/11/25 04:37:37;;;;;;;2.75;1.67;;;;;;;17.62;48.55;100933.78;5024197;28;20048;-57
2022/11/25 04:40:03;;;;;;;4.68;1.92;;;;;;;17.61;48.31;100933.94;5027085;28;20029;-60
2022/11/25 04:42:31;;;;;;;3.17;1.77;;;;;;;17.63;48.41;100937.34;5026567;28;20086;-59
2022/11/25 04:44:57;;;;;;;5.27;1.80;;;;;;;17.63;48.52;100953.47;5026839;28;20030;-59
2022/11/25 04:47:22;;;;;;;3.70;1.80;;;;;;;17.58;48.60;100943.16;5025960;28;20290;-59
2022/11/25 04:49:48;;;;;;;4.25;2.10;;;;;;;17.61;48.41;100953.59;5026876;28;20053;-59
2022/11/25 04:52:13;;;;;;;2.85;1.73;;;;;;;17.62;48.71;100962.50;5026190;28;20025;-59
2022/11/25 04:54:38;;;;;;;2.97;1.83;;;;;;;17.60;48.36;100953.78;5026668;28;20090;-59
2022/11/25 04:57:03;;;;;;;3.45;1.60;;;;;;;17.63;48.64;100962.38;5026191;28;20036;-59
2022/11/25 04:59:38;;;;;;;2.90;1.67;;;;;;;17.63;48.54;100961.53;5026818;28;20129;-59
2022/11/25 05:02:04;;;;;;;3.03;1.63;;;;;;;17.63;48.55;100961.53;5025633;28;20414;-58
2022/11/25 05:04:29;;;;;;;4.53;2.28;;;;;;;17.61;48.38;100966.22;5008796;28;20026;-59
2022/11/25 05:06:54;;;;;;;4.20;1.60;;;;;;;17.59;48.55;100966.38;5026091;28;20033;-59
2022/11/25 05:09:20;;;;;;;2.17;1.52;;;;;;;17.52;48.35;100951.03;5026158;28;20041;-59
2022/11/25 05:11:45;;;;;;;3.45;1.70;;;;;;;17.63;48.10;100973.13;5026072;28;20030;-59
2022/11/25 05:14:10;;;;;;;3.45;1.85;;;;;;;17.63;48.42;100986.56;5026149;28;20520;-59
2022/11/25 05:16:35;;;;;;;3.50;1.80;;;;;;;17.63;48.34;100986.56;5025586;28;20033;-59
2022/11/25 05:19:01;;;;;;;3.90;2.03;;;;;;;17.63;48.59;100991.94;5025921;28;20033;-60
2022/11/25 05:21:26;;;;;;;3.38;1.90;;;;;;;17.64;48.71;100995.47;5025884;28;20040;-59
2022/11/25 05:23:53;;;;;;;3.13;1.50;;;;;;;17.63;48.72;100991.13;5025502;28;20050;-59
2022/11/25 05:26:18;;;;;;;3.13;1.70;;;;;;;17.62;48.51;100992.09;5026007;28;20029;-59
2022/11/25 05:28:43;;;;;;;2.00;1.30;;;;;;;17.57;48.52;100991.72;5026085;28;20469;-60
2022/11/25 05:31:08;;;;;;;2.67;1.70;;;;;;;17.64;48.71;101000.84;5025843;28;20124;-59
2022/11/25 05:33:34;;;;;;;3.63;1.70;;;;;;;17.64;48.67;100998.16;5025410;28;20060;-59
2022/11/25 05:36:00;;;;;;;2.80;1.55;;;;;;;17.64;48.58;100998.16;5025664;28;20033;-59
2022/11/25 05:38:26;;;;;;;2.63;1.60;;;;;;;17.64;48.39;100995.47;5025357;28;20032;-60
2022/11/25 05:40:52;;;;;;;2.83;1.83;;;;;;;17.52;48.61;100983.28;5025754;28;20038;-59
2022/11/25 05:43:17;;;;;;;2.28;1.55;;;;;;;17.56;48.72;100988.19;5025350;28;20064;-60
2022/11/25 05:45:43;;;;;;;3.67;1.52;;;;;;;17.64;48.43;101008.94;5024470;28;20046;-59
2022/11/25 05:48:08;;;;;;;3.92;1.90;;;;;;;17.63;48.69;101008.09;5024693;28;20037;-59
2022/11/25 05:50:33;;;;;;;7.43;1.95;;;;;;;17.62;48.62;101001.00;5025870;28;20030;-59
2022/11/25 05:52:59;;;;;;;3.05;1.58;;;;;;;17.65;48.53;101007.91;5025093;28;20022;-58
2022/11/25 05:55:24;;;;;;;3.72;1.38;;;;;;;17.65;48.55;101014.13;5025557;28;20037;-58
2022/11/25 05:57:49;;;;;;;3.90;1.60;;;;;;;17.66;48.67;101020.34;5024234;28;20517;-59
2022/11/25 06:00:15;;;;;;;4.88;2.08;;;;;;;17.66;48.68;101013.13;5025231;28;20104;-59
2022/11/25 06:02:40;;;;;;;2.78;1.55;;;;;;;17.59;48.81;101009.41;5024256;28;20120;-58
2022/11/25 06:05:06;;;;;;;3.58;1.70;;;;;;;17.64;49.13;101023.22;5024773;28;20033;-58
2022/11/25 06:07:31;;;;;;;5.28;2.10;;;;;;;17.41;49.28;100990.59;5021960;28;20026;-59
2022/11/25 06:09:56;;;;;;;5.15;1.70;;;;;;;17.69;49.17;101028.94;5025774;28;20025;-59
2022/11/25 06:12:21;;;;;;;3.03;1.65;;;;;;;17.46;49.27;100982.09;5024946;28;20030;-59
2022/11/25 06:14:47;;;;;;;4.05;1.65;;;;;;;17.72;49.60;101033.19;5025069;28;20053;-58
2022/11/25 06:17:12;;;;;;;2.10;1.55;;;;;;;17.61;49.67;101019.97;5024253;28;20034;-58
2022/11/25 06:19:37;;;;;;;4.47;1.70;;;;;;;17.72;49.34;101036.72;5024833;28;20025;-59
2022/11/25 06:22:02;;;;;;;2.38;1.33;;;;;;;17.75;49.93;101035.56;5024106;28;20022;-59
2022/11/25 06:24:29;;;;;;;3.72;2.10;;;;;;;17.74;49.55;101040.09;5024122;28;20553;-58
2022/11/25 06:26:54;;;;;;;3.35;1.67;;;;;;;17.77;49.96;101038.13;5024354;28;20029;-59
2022/11/25 06:29:19;;;;;;;2.88;1.60;;;;;;;17.77;49.76;101047.03;5024409;28;20036;-59
2022/11/25 06:31:45;;;;;;;3.05;1.73;;;;;;;17.79;49.82;101052.22;5023614;28;20058;-59
2022/11/25 06:34:10;;;;;;;2.67;1.50;;;;;;;17.80;50.02;101056.59;5016035;28;20077;-59
2022/11/25 06:36:35;;;;;;;3.53;1.60;;;;;;;17.81;50.01;101061.00;5023862;28;20025;-59
2022/11/25 06:39:00;;;;;;;1.58;1.25;;;;;;;17.81;49.93;101061.84;5023757;28;20500;-58
2022/11/25 06:41:26;;;;;;;3.35;1.42;;;;;;;17.76;50.03;101064.16;5024334;28;20026;-58
2022/11/25 06:43:51;;;;;;;4.18;1.67;;;;;;;17.82;49.92;101074.28;5023352;28;20030;-59
2022/11/25 06:46:18;;;;;;;2.55;1.67;;;;;;;17.83;49.97;101072.44;5023256;28;20018;-58
2022/11/25 06:48:43;;;;;;;2.63;1.40;;;;;;;17.83;49.83;101078.66;5023486;28;20475;-59
2022/11/25 06:51:11;;;;;;;3.20;1.77;;;;;;;17.84;49.96;101079.50;5024444;28;20040;-59
2022/11/25 06:53:37;;;;;;;2.22;1.48;;;;;;;17.75;50.05;101062.47;5023561;28;20021;-59
2022/11/25 06:56:12;;;;;;;4.22;1.85;;;;;;;17.85;49.75;101082.03;5023770;28;20054;-59
2022/11/25 06:58:38;;;;;;;2.80;1.63;;;;;;;17.85;50.08;101084.75;5021424;28;20026;-59
2022/11/25 07:01:21;;;;;;;3.30;1.80;;;;;;;17.85;50.02;101078.50;5024200;28;20026;-59
2022/11/25 07:03:48;;;;;;;3.47;1.88;;;;;;;17.86;49.93;101082.88;5022080;28;20033;-59
2022/11/25 07:06:14;;;;;;;3.28;1.92;;;;;;;17.87;49.81;101087.25;5023365;28;20813;-59
2022/11/25 07:08:40;;;;;;;3.13;1.48;;;;;;;17.86;49.97;101085.56;5023270;28;20026;-59
2022/11/25 07:11:20;;;;;;;1.60;1.23;;;;;;;17.86;50.05;101086.41;5023544;28;20037;-59
2022/11/25 07:13:46;;;;;;;5.18;1.90;;;;;;;17.87;49.96;101098.00;5021960;28;20048;-59
2022/11/25 07:16:11;;;;;;;3.83;1.45;;;;;;;17.87;49.99;101104.25;5005791;28;20397;-58
2022/11/25 07:18:37;;;;;;;4.38;1.40;;;;;;;17.80;50.00;101089.75;5020183;28;20033;-59
2022/11/25 07:21:14;;;;;;;2.95;1.10;;;;;;;17.87;50.16;101114.16;5023685;28;20122;-59
2022/11/25 07:23:40;;;;;;;2.95;1.50;;;;;;;17.89;49.90;101112.16;5020707;28;20115;-59
2022/11/25 07:26:16;;;;;;;4.85;1.83;;;;;;;17.74;50.20;101104.66;5023453;28;20037;-59
2022/11/25 07:28:42;;;;;;;4.05;1.67;;;;;;;17.89;50.22;101126.47;5020956;28;20034;-59
2022/11/25 07:31:08;;;;;;;2.17;1.30;;;;;;;17.90;49.95;101132.69;5023521;28;20032;-59
2022/11/25 07:33:33;;;;;;;3.45;1.65;;;;;;;17.86;49.64;101132.16;5019561;28;20049;-60
2022/11/25 07:36:07;;;;;;;2.70;1.30;;;;;;;17.89;49.85;101141.75;4996451;28;20085;-60
2022/11/25 07:38:33;;;;;;;3.45;1.80;;;;;;;17.90;49.88;101143.44;5014283;28;20025;-60
2022/11/25 07:41:11;;;;;;;2.60;1.50;;;;;;;17.89;50.00;101147.97;4995628;28;20089;-60
2022/11/25 07:43:37;;;;;;;2.63;1.40;;;;;;;17.88;49.96;101159.75;5014410;28;20060;-60
2022/11/25 07:46:24;;;;;;;3.72;1.55;;;;;;;17.88;50.09;101157.06;5013359;28;20090;-61
2022/11/25 07:48:51;;;;;;;2.83;1.23;;;;;;;17.80;50.04;101143.53;5014464;28;20033;-60
2022/11/25 07:51:16;;;;;;;4.20;1.70;;;;;;;17.89;49.90;101158.75;5007417;28;20104;-60
2022/11/25 07:53:42;;;;;;;3.28;1.63;;;;;;;17.92;49.99;101161.09;5015004;28;20474;-60
2022/11/25 07:56:07;;;;;;;3.33;1.35;;;;;;;17.92;49.68;101166.47;5023941;28;20033;-60
2022/11/25 07:58:32;;;;;;;3.88;1.58;;;;;;;17.93;49.93;101168.19;5027081;28;20031;-60
2022/11/25 08:01:02;;;;;;;3.50;1.67;;;;;;;17.85;49.79;101161.91;5027012;28;20034;-60
2022/11/25 08:03:27;;;;;;;3.83;1.75;;;;;;;17.95;49.80;101171.56;5026401;28;20037;-61
2022/11/25 08:05:52;;;;;;;4.80;1.70;;;;;;;17.95;49.62;101170.72;5027526;28;20038;-58
2022/11/25 08:08:17;;;;;;;4.28;2.28;;;;;;;17.95;49.66;101171.56;5026734;28;20037;-60
2022/11/25 08:10:43;;;;;;;4.97;1.63;;;;;;;17.97;49.70;101176.78;5027357;28;20030;-59
2022/11/25 08:13:08;;;;;;;2.92;1.58;;;;;;;17.55;49.48;101120.09;5008190;28;20065;-60
2022/11/25 08:15:33;;;;;;;2.80;1.60;;;;;;;17.98;49.56;101179.31;5011084;28;20110;-59
2022/11/25 08:17:58;;;;;;;3.80;2.08;;;;;;;18.02;49.47;101185.25;5006607;28;20031;-60
2022/11/25 08:20:24;;;;;;;3.55;1.38;;;;;;;18.05;49.56;101181.38;5019987;28;20030;-60
2022/11/25 08:22:49;;;;;;;1.85;1.10;;;;;;;18.07;49.91;101191.00;5012299;28;20157;-58
2022/11/25 08:25:14;;;;;;;3.83;1.35;;;;;;;18.09;49.88;101188.13;5024066;28;20041;-60
2022/11/25 08:27:40;;;;;;;2.85;1.30;;;;;;;18.13;49.57;101193.03;5023448;28;20029;-60
2022/11/25 08:30:06;;;;;;;3.38;1.50;;;;;;;18.08;49.84;101175.69;5026558;28;20382;-60
2022/11/25 08:32:36;;;;;;;3.10;1.60;;;;;;;18.23;49.90;101207.25;5025300;28;20037;-55
2022/11/25 08:35:01;;;;;;;1.90;1.25;;;;;;;18.24;49.81;101202.72;5019673;28;20109;-54
2022/11/25 08:37:29;;;;;;;3.28;1.20;;;;;;;18.16;49.73;101186.50;5006507;28;20034;-59
2022/11/25 08:39:54;;;;;;;2.35;1.15;;;;;;;18.28;49.58;101216.72;5007262;28;20035;-58
2022/11/25 08:42:20;;;;;;;2.85;1.05;;;;;;;18.29;49.41;101221.09;5006513;28;20110;-59
2022/11/25 08:44:47;;;;;;;3.90;1.55;;;;;;;18.29;49.78;101226.47;5006666;28;20026;-58
2022/11/25 08:47:12;;;;;;;4.60;1.17;;;;;;;18.30;49.66;101228.16;4988422;28;20391;-59
2022/11/25 08:49:37;;;;;;;4.20;1.30;;;;;;;18.29;49.30;101227.31;5006748;28;20046;-59
2022/11/25 08:52:03;;;;;;;3.72;1.33;;;;;;;18.34;49.54;101232.22;5006344;28;20213;-58
2022/11/25 08:54:28;;;;;;;2.60;1.20;;;;;;;18.35;49.41;101231.22;5006556;28;20037;-59
2022/11/25 08:56:53;;;;;;;2.75;1.45;;;;;;;18.34;49.15;101243.84;5006408;28;20033;-61
2022/11/25 08:59:18;;;;;;;3.15;1.35;;;;;;;18.30;49.25;101226.31;5006747;28;20022;-59
2022/11/25 09:01:44;;;;;;;2.53;1.50;;;;;;;18.34;49.34;101234.91;5009241;28;20030;-59
2022/11/25 09:04:09;;;;;;;1.88;1.20;;;;;;;18.34;49.42;101238.44;5018374;28;20080;-59
2022/11/25 09:06:34;;;;;;;1.58;0.90;;;;;;;18.36;49.24;101238.31;5024924;28;20036;-59
2022/11/25 09:09:00;;;;;;;1.50;1.10;;;;;;;18.36;49.15;101235.63;5024479;28;20036;-58
2022/11/25 09:11:26;;;;;;;3.53;1.38;;;;;;;18.37;49.19;101242.69;5024358;28;20033;-57
2022/11/25 09:13:52;;;;;;;2.13;1.33;;;;;;;18.36;49.23;101244.53;5015156;28;20467;-59
2022/11/25 09:16:17;;;;;;;2.63;1.10;;;;;;;18.30;49.27;101236.22;5020286;28;20086;-59
2022/11/25 09:18:44;;;;;;;4.38;1.30;;;;;;;18.36;49.09;101249.94;5024247;28;20133;-59
2022/11/25 09:21:12;;;;;;;3.80;1.23;;;;;;;18.12;49.22;101207.50;5019419;28;20069;-60
2022/11/25 09:23:38;;;;;;;3.78;1.30;;;;;;;18.37;49.04;101251.59;5011513;28;20093;-58
2022/11/25 09:26:05;;;;;;;1.83;1.35;;;;;;;18.38;49.02;101261.38;5021422;28;20034;-58
2022/11/25 09:28:31;;;;;;;3.67;1.30;;;;;;;18.40;49.48;101269.31;5023082;28;20388;-58
2022/11/25 09:30:56;;;;;;;4.10;1.88;;;;;;;18.40;48.91;101267.47;5024057;28;20057;-58
2022/11/25 09:33:21;;;;;;;3.58;1.65;;;;;;;18.41;49.21;101271.00;5023683;28;20030;-59
2022/11/25 09:35:49;;;;;;;3.80;1.15;;;;;;;18.40;49.26;101283.59;5024586;28;20034;-58
2022/11/25 09:38:14;;;;;;;2.75;1.25;;;;;;;18.41;48.71;101282.59;5024179;28;20530;-58
2022/11/25 09:40:46;;;;;;;2.40;1.17;;;;;;;18.41;48.72;101289.84;5024439;28;20038;-58
2022/11/25 09:46:41;;;;;;;3.05;1.25;;;;;;;18.40;48.72;101294.38;5024074;28;20161;-59
2022/11/25 09:49:19;;;;;;;2.88;1.20;;;;;;;18.41;48.77;101300.59;5007315;28;20030;-59
2022/11/25 09:51:57;;;;;;;1.57;1.00;;;;;;;18.41;48.78;101306.00;5006555;28;20038;-58
2022/11/25 09:54:26;;;;;;;3.65;1.25;;;;;;;18.16;48.81;101269.94;5007152;28;20026;-59
2022/11/25 09:57:03;;;;;;;2.17;1.30;;;;;;;18.33;48.71;101312.13;5007117;28;20129;-58
2022/11/25 09:59:35;;;;;;;3.53;1.58;;;;;;;18.40;48.35;101318.59;5006878;28;20101;-58
2022/11/25 10:02:03;;;;;;;3.55;1.20;;;;;;;18.38;48.57;101319.75;5006047;28;20085;-58
2022/11/25 10:04:34;;;;;;;1.52;1.02;;;;;;;18.33;48.50;101312.13;5024362;28;20129;-59
2022/11/25 10:07:02;;;;;;;2.28;1.30;;;;;;;18.32;48.63;101307.78;5006653;28;20022;-58
2022/11/25 10:09:31;;;;;;;1.75;0.95;;;;;;;18.41;48.71;101328.38;5006574;28;20036;-58
2022/11/25 10:12:04;;;;;;;2.15;1.20;;;;;;;18.35;48.59;101315.53;5006996;28;20022;-59
2022/11/25 10:14:38;;;;;;;2.83;1.13;;;;;;;18.38;48.58;101317.06;5018977;28;20041;-58
2022/11/25 10:17:15;;;;;;;2.70;1.10;;;;;;;18.43;48.37;101331.72;5023905;28;20109;-59
2022/11/25 10:19:56;;;;;;;1.80;1.10;;;;;;;18.42;48.52;101330.06;5023257;28;20138;-58
2022/11/25 10:22:27;;;;;;;1.90;1.20;;;;;;;18.43;48.45;101338.97;5006162;28;20022;-59
2022/11/25 10:24:56;;;;;;;1.67;1.00;;;;;;;18.43;48.62;101336.28;5024220;28;20056;-59
2022/11/25 10:27:40;;;;;;;2.72;1.20;;;;;;;18.43;48.59;101331.72;5023999;28;20049;-59
2022/11/25 10:30:19;;;;;;;2.08;1.05;;;;;;;18.45;48.51;101343.22;5023235;28;20101;-59
2022/11/25 10:33:02;;;;;;;2.65;1.30;;;;;;;18.45;48.57;101343.22;5022876;28;20037;-58
2022/11/25 10:35:34;;;;;;;0.80;0.70;;;;;;;18.41;48.60;101336.44;5023370;28;20026;-59
2022/11/25 10:38:02;;;;;;;2.22;1.08;;;;;;;18.44;48.32;101346.91;5005723;28;20054;-59
2022/11/25 10:40:27;;;;;;;2.67;1.08;;;;;;;18.42;48.56;101346.22;5005661;28;20033;-59
2022/11/25 10:42:52;;;;;;;1.30;1.10;;;;;;;18.45;48.33;101350.44;5023335;28;20068;-59
2022/11/25 10:45:21;;;;;;;2.13;1.17;;;;;;;18.45;48.68;101348.59;5022852;28;20434;-58
2022/11/25 10:47:59;;;;;;;;;;;;;;;18.45;48.56;101356.69;5005894;28;20040;-60
2022/11/25 10:50:32;;;;;;;2.10;0.98;;;;;;;18.45;48.64;101361.22;5023337;28;19923;-59
2022/11/25 10:53:12;;;;;;;1.88;0.90;;;;;;;18.44;48.66;101359.53;5005449;28;20096;-59
2022/11/25 10:55:37;;;;;;;1.95;1.00;;;;;;;18.44;48.72;101368.44;5005660;28;20022;-59
2022/11/25 10:58:21;;;;;;;2.55;1.23;;;;;;;18.41;48.53;101368.75;5022802;28;20030;-59
2022/11/25 11:00:46;;;;;;;1.65;1.05;;;;;;;18.45;48.58;101372.81;5005100;28;20026;-58
2022/11/25 11:03:23;;;;;;;2.10;0.90;;;;;;;18.45;48.64;101380.91;5022177;28;20097;-59
2022/11/25 11:05:51;;;;;;;2.10;1.23;;;;;;;18.46;48.71;101381.75;5005166;28;20441;-58
2022/11/25 11:08:27;;;;;;;1.63;0.95;;;;;;;18.43;48.58;101376.66;5022673;28;20605;-59
2022/11/25 11:11:15;;;;;;;2.85;1.10;;;;;;;18.47;48.74;101386.13;5022816;28;20029;-59
2022/11/25 11:13:40;;;;;;;2.45;1.02;;;;;;;18.47;48.57;101386.97;5022842;28;20034;-59
2022/11/25 11:16:21;;;;;;;2.35;1.13;;;;;;;18.47;48.63;101389.66;5022709;28;20053;-59
2022/11/25 11:18:46;;;;;;;2.35;1.08;;;;;;;18.48;48.34;101399.47;5004514;28;20026;-59
2022/11/25 11:21:24;;;;;;;2.30;1.05;;;;;;;18.49;48.55;101400.31;5022884;28;20078;-59
2022/11/25 11:23:51;;;;;;;1.67;0.95;;;;;;;18.48;48.61;101399.47;5004672;28;20130;-59
2022/11/25 11:26:35;;;;;;;2.83;0.95;;;;;;;18.40;48.71;101382.38;5022698;28;20471;-59
2022/11/25 11:29:04;;;;;;;2.22;1.00;;;;;;;18.51;48.92;101409.06;5005232;28;20029;-59
2022/11/25 11:31:44;;;;;;;2.78;1.20;;;;;;;18.51;48.81;101418.97;5022565;28;20089;-59